createdAt,value
2019-02-23T00:06:53.324Z,6.70
2019-02-23T00:16:59.264Z,7.20
2019-02-23T00:27:05.318Z,6.55
2019-02-23T00:37:11.163Z,7.30
2019-02-23T00:57:22.070Z,6.72
2019-02-23T01:07:27.974Z,6.10
2019-02-23T01:17:33.795Z,7.00
2019-02-23T01:27:39.735Z,5.92
2019-02-23T01:47:50.730Z,5.55
2019-02-23T01:57:56.560Z,5.62
2019-02-23T02:08:02.450Z,5.78
2019-02-23T02:18:08.307Z,5.58
2019-02-23T02:38:19.037Z,4.92
2019-02-23T02:48:24.857Z,4.70
2019-02-23T02:58:30.840Z,5.40
2019-02-23T03:18:41.818Z,5.42
2019-02-23T03:28:47.644Z,5.30
2019-02-23T03:38:53.495Z,4.85
2019-02-23T03:48:59.396Z,4.75
2019-02-23T03:59:05.289Z,5.60
2019-02-23T04:09:11.042Z,5.08
2019-02-23T04:19:16.943Z,5.28
2019-02-23T04:29:22.840Z,5.03
2019-02-23T04:49:33.474Z,4.90
2019-02-23T04:59:39.269Z,6.35
2019-02-23T05:09:45.106Z,6.03
2019-02-23T05:19:50.958Z,7.05
2019-02-23T05:29:56.809Z,8.68
2019-02-23T05:40:02.630Z,7.80
2019-02-23T06:00:16.449Z,11.65
2019-02-23T06:10:22.344Z,11.73
2019-02-23T06:20:28.273Z,11.43
2019-02-23T06:30:34.198Z,9.28
2019-02-23T06:40:40.210Z,9.40
2019-02-23T07:00:51.000Z,7.97
2019-02-23T07:10:57.041Z,8.10
2019-02-23T07:21:02.980Z,7.97
2019-02-23T07:31:08.888Z,7.17
2019-02-23T07:41:14.801Z,6.83
2019-02-23T07:51:20.559Z,6.47
2019-02-23T08:01:26.415Z,7.22
2019-02-23T08:11:32.151Z,6.85
2019-02-23T08:21:38.024Z,14.98
2019-02-23T08:31:43.963Z,12.60
2019-02-23T08:41:49.730Z,50.17
2019-02-23T08:51:55.587Z,30.20
2019-02-23T09:02:01.506Z,28.30
2019-02-23T09:12:07.327Z,26.77
2019-02-23T09:22:14.168Z,23.55
2019-02-23T09:32:20.083Z,20.52
2019-02-23T09:42:25.966Z,16.90
2019-02-23T09:52:31.865Z,14.75
2019-02-23T10:02:37.700Z,13.93
2019-02-23T10:12:43.586Z,11.20
2019-02-23T10:22:49.421Z,10.08
2019-02-23T10:32:55.285Z,8.85
2019-02-23T10:43:01.140Z,8.33
2019-02-23T10:53:07.112Z,7.17
2019-02-23T11:13:18.013Z,5.87
2019-02-23T11:23:24.030Z,4.90
2019-02-23T11:33:30.849Z,4.85
2019-02-23T11:43:36.721Z,5.05
2019-02-23T11:53:42.766Z,5.25
2019-02-23T12:03:48.596Z,4.97
2019-02-23T12:13:54.523Z,5.78
2019-02-23T12:24:06.051Z,5.28
2019-02-23T12:34:08.143Z,4.70
2019-02-23T12:44:14.066Z,5.10
2019-02-23T12:54:20.021Z,5.75
2019-02-23T13:04:25.989Z,6.83
2019-02-23T13:14:48.656Z,12.40
2019-02-23T13:25:13.825Z,11.95
2019-02-23T13:35:54.166Z,10.85
2019-02-23T13:46:18.057Z,9.85
2019-02-23T13:56:46.595Z,9.30
2019-02-23T14:07:11.810Z,9.08
2019-02-23T14:17:43.505Z,8.38
2019-02-23T14:28:36.157Z,21.17
2019-02-23T14:38:58.586Z,24.82
2019-02-23T14:49:18.112Z,21.02
2019-02-23T14:59:46.142Z,27.93
2019-02-23T15:10:17.711Z,34.50
2019-02-23T15:20:40.231Z,24.55
2019-02-23T15:31:12.649Z,35.63
2019-02-23T15:41:35.004Z,36.48
2019-02-23T15:51:40.960Z,36.50
2019-02-23T16:01:47.777Z,24.05
2019-02-23T16:21:58.580Z,31.17
2019-02-23T16:32:04.503Z,37.25
2019-02-23T16:42:10.361Z,37.33
2019-02-23T16:52:16.188Z,27.95
2019-02-23T17:02:21.948Z,20.25
2019-02-23T17:12:28.101Z,35.95
2019-02-23T17:22:33.954Z,24.67
2019-02-23T17:32:39.836Z,22.30
2019-02-23T17:42:45.693Z,28.70
2019-02-23T17:52:51.612Z,23.00
2019-02-23T18:02:57.435Z,38.75
2019-02-23T18:13:03.553Z,41.05
2019-02-23T18:23:09.622Z,32.90
2019-02-23T18:33:15.639Z,29.48
2019-02-23T18:53:26.723Z,39.70
2019-02-23T19:03:32.831Z,41.65
2019-02-23T19:13:38.676Z,36.35
2019-02-23T19:23:44.573Z,39.42
2019-02-23T19:33:50.474Z,34.80
2019-02-23T19:43:56.759Z,30.60
2019-02-23T19:54:02.723Z,26.00
2019-02-23T20:04:08.702Z,27.17
2019-02-23T20:14:14.752Z,24.10
2019-02-23T20:24:20.885Z,23.12
2019-02-23T20:34:27.000Z,21.37
2019-02-23T20:44:33.163Z,22.07
2019-02-23T21:04:44.598Z,19.27
2019-02-23T21:14:50.577Z,17.07
2019-02-23T21:35:01.414Z,16.57
2019-02-23T21:45:09.955Z,16.55
2019-02-23T21:55:15.816Z,16.90
2019-02-23T22:05:21.780Z,15.45
2019-02-23T22:15:27.894Z,15.32
2019-02-23T22:25:33.898Z,14.70
2019-02-23T22:35:39.793Z,13.85
2019-02-23T22:45:45.710Z,13.38
2019-02-23T22:55:51.880Z,12.20
2019-02-23T23:16:02.874Z,11.90
2019-02-23T23:26:08.783Z,11.85
2019-02-23T23:36:14.713Z,11.00
2019-02-23T23:46:20.494Z,10.40
